Time;durP1;ratioP1;P1;durP2;ratioP2;P2;SDS_P1;SDS_P2;PMS_P1;PMS_P2;Temp;Humidity;BMP_temperature;BMP_pressure;BME280_temperature;BME280_humidity;BME280_pressure;Samples;Min_cycle;Max_cycle;Signal;HPM_P1;HPM_P2
2022/09/20 00:01:48;;;;;;;0.90;0.68;;;;;;;7.73;100.00;99791.00;6300466;28;20058;-76
2022/09/20 00:04:49;;;;;;;0.20;0.20;;;;;;;7.68;100.00;99790.44;6298996;28;20136;-75
2022/09/20 00:07:50;;;;;;;0.88;0.52;;;;;;;7.70;100.00;99796.38;6299955;28;20052;-76
2022/09/20 00:10:52;;;;;;;2.40;0.60;;;;;;;7.65;100.00;99793.19;6299968;28;20119;-76
2022/09/20 00:13:56;;;;;;;0.90;0.70;;;;;;;7.63;100.00;99795.00;6299391;28;20166;-76
2022/09/20 00:16:57;;;;;;;0.47;0.47;;;;;;;7.57;100.00;99796.16;6331633;28;20052;-76
2022/09/20 00:19:57;;;;;;;0.77;0.43;;;;;;;7.60;100.00;99798.63;6298624;28;20494;-76
2022/09/20 00:22:58;;;;;;;1.05;0.90;;;;;;;7.55;100.00;99795.41;6298585;28;20467;-75
2022/09/20 00:26:01;;;;;;;0.30;0.30;;;;;;;7.56;100.00;99797.09;6299922;28;20170;-76
2022/09/20 00:29:03;;;;;;;0.75;0.57;;;;;;;7.57;100.00;99790.16;6298289;28;20059;-76
2022/09/20 00:32:04;;;;;;;1.20;0.60;;;;;;;7.46;100.00;99791.53;6297752;28;20130;-76
2022/09/20 00:35:09;;;;;;;1.02;0.47;;;;;;;7.42;100.00;99794.38;6298276;28;20044;-76
2022/09/20 00:38:12;;;;;;;10.40;0.85;;;;;;;7.41;100.00;99796.16;6298046;28;20045;-77
2022/09/20 00:41:13;;;;;;;0.98;0.85;;;;;;;7.37;100.00;99801.56;6298490;28;20055;-76
2022/09/20 00:44:46;;;;;;;0.73;0.57;;;;;;;7.29;100.00;99803.72;6296510;28;20045;-76
2022/09/20 00:47:51;;;;;;;0.85;0.60;;;;;;;7.18;100.00;99799.06;6298169;28;20044;-75
2022/09/20 00:51:02;;;;;;;0.88;0.70;;;;;;;7.08;100.00;99793.50;6298758;28;20044;-76
2022/09/20 00:54:07;;;;;;;0.60;0.30;;;;;;;7.08;100.00;99785.72;6297878;28;20395;-76
2022/09/20 00:57:08;;;;;;;0.57;0.47;;;;;;;7.08;100.00;99788.31;6297572;28;20056;-75
2022/09/20 01:00:10;;;;;;;0.57;0.55;;;;;;;7.10;100.00;99777.88;6298748;28;20052;-75
2022/09/20 01:03:13;;;;;;;2.17;1.15;;;;;;;7.02;100.00;99780.84;6297589;28;20453;-76
2022/09/20 01:06:15;;;;;;;5.15;1.25;;;;;;;7.10;100.00;99780.47;6297399;28;20502;-75
2022/09/20 01:09:16;;;;;;;3.67;1.83;;;;;;;6.86;100.00;99780.81;6297132;28;20094;-75
2022/09/20 01:12:23;;;;;;;4.05;1.80;;;;;;;6.95;100.00;99788.09;6296002;28;20080;-75
2022/09/20 01:15:27;;;;;;;2.90;1.40;;;;;;;6.96;100.00;99786.34;6295608;28;20051;-75
2022/09/20 01:18:30;;;;;;;1.67;1.10;;;;;;;6.89;100.00;99778.03;6296923;28;20044;-76
2022/09/20 01:21:31;;;;;;;1.95;1.08;;;;;;;6.86;100.00;99776.44;6297130;28;20056;-76
2022/09/20 01:24:50;;;;;;;1.60;0.98;;;;;;;6.88;100.00;99786.75;6298125;28;20090;-75
2022/09/20 01:27:52;;;;;;;1.48;1.20;;;;;;;6.86;100.00;99791.19;6298096;28;20044;-75
2022/09/20 01:31:08;;;;;;;1.45;0.90;;;;;;;6.78;100.00;99785.53;6297530;28;20132;-76
2022/09/20 01:34:16;;;;;;;1.55;0.35;;;;;;;6.77;100.00;99784.66;6295916;28;20064;-76
2022/09/20 01:37:25;;;;;;;1.88;0.90;;;;;;;6.74;100.00;99784.00;6296431;28;20040;-75
2022/09/20 01:40:55;;;;;;;2.05;0.88;;;;;;;6.67;100.00;99780.84;6295281;28;20045;-76
2022/09/20 01:44:09;;;;;;;0.82;0.60;;;;;;;6.72;100.00;99781.47;6297664;28;20382;-75
2022/09/20 01:47:25;;;;;;;3.28;1.23;;;;;;;6.72;100.00;99791.03;6296326;28;20442;-76
2022/09/20 01:50:45;;;;;;;2.08;1.10;;;;;;;6.66;100.00;99789.56;6297253;28;20041;-75
2022/09/20 01:53:52;;;;;;;1.90;1.10;;;;;;;6.66;100.00;99792.97;6294794;28;20045;-76
2022/09/20 01:57:11;;;;;;;1.38;0.70;;;;;;;6.54;100.00;99785.81;6294721;28;20122;-76
2022/09/20 02:00:20;;;;;;;1.30;0.73;;;;;;;6.52;100.00;99790.22;6296210;28;20045;-75
2022/09/20 02:03:27;;;;;;;0.80;0.80;;;;;;;6.48;100.00;99786.09;6295058;28;20040;-75
2022/09/20 02:06:41;;;;;;;5.75;0.77;;;;;;;6.54;100.00;99785.81;6295488;28;20502;-76
2022/09/20 02:09:57;;;;;;;1.27;0.93;;;;;;;6.56;100.00;99788.31;6295582;28;20043;-76
2022/09/20 02:13:02;;;;;;;0.63;0.60;;;;;;;6.58;100.00;99791.69;6295760;28;20434;-76
2022/09/20 02:16:31;;;;;;;0.77;0.52;;;;;;;6.37;100.00;99788.38;6294231;28;20055;-76
2022/09/20 02:19:59;;;;;;;1.17;0.88;;;;;;;6.29;100.00;99785.31;6296678;28;20106;-76
2022/09/20 02:23:35;;;;;;;1.13;0.70;;;;;;;6.24;100.00;99788.97;6295798;28;20093;-75
2022/09/20 02:26:43;;;;;;;0.70;0.60;;;;;;;6.22;100.00;99793.38;6278300;28;20127;-75
2022/09/20 02:30:28;;;;;;;1.60;0.93;;;;;;;6.20;100.00;99787.44;6295592;28;20056;-76
2022/09/20 02:33:35;;;;;;;2.35;0.90;;;;;;;6.27;100.00;99794.91;6291533;28;20064;-74
2022/09/20 02:37:00;;;;;;;0.77;0.70;;;;;;;6.22;100.00;99793.38;6296715;28;20094;-73
2022/09/20 02:40:22;;;;;;;0.80;0.70;;;;;;;6.16;100.00;99798.00;6296694;28;20666;-74
2022/09/20 02:44:00;;;;;;;1.27;1.00;;;;;;;6.12;100.00;99797.31;6296474;28;20073;-74
2022/09/20 02:47:26;;;;;;;0.57;0.57;;;;;;;6.02;100.00;99809.00;6296894;28;20065;-74
2022/09/20 02:50:55;;;;;;;0.60;0.50;;;;;;;5.97;100.00;99808.38;6296273;28;20476;-74
2022/09/20 02:54:34;;;;;;;0.55;0.55;;;;;;;5.95;100.00;99813.63;6296726;28;20127;-73
2022/09/20 02:57:41;;;;;;;0.65;0.63;;;;;;;5.94;100.00;99813.66;6296575;28;20037;-74
2022/09/20 03:01:04;;;;;;;0.57;0.43;;;;;;;5.93;100.00;99807.66;6296468;28;20059;-74
2022/09/20 03:04:41;;;;;;;1.95;1.05;;;;;;;5.95;100.00;99820.53;6295344;28;20040;-74
2022/09/20 03:08:00;;;;;;;3.97;0.90;;;;;;;5.92;100.00;99818.06;6286893;28;20121;-74
2022/09/20 03:11:25;;;;;;;1.25;0.90;;;;;;;5.83;100.00;99820.16;6295140;28;20384;-74
2022/09/20 03:14:45;;;;;;;1.00;0.75;;;;;;;5.79;100.00;99820.38;6295300;28;20616;-74
2022/09/20 03:17:58;;;;;;;0.82;0.70;;;;;;;5.72;100.00;99824.16;6296283;28;20049;-74
2022/09/20 03:21:11;;;;;;;;;;;;;;;5.72;100.00;99824.16;6295455;28;20136;-74
2022/09/20 03:24:49;;;;;;;1.15;0.93;;;;;;;5.68;100.00;99820.00;6295202;28;20418;-74
2022/09/20 03:28:08;;;;;;;0.63;0.63;;;;;;;5.73;100.00;99821.50;6295083;28;20124;-75
2022/09/20 03:31:30;;;;;;;1.55;0.93;;;;;;;5.58;100.00;99828.19;6278205;28;20395;-74
2022/09/20 03:34:49;;;;;;;0.95;0.63;;;;;;;5.57;100.00;99817.91;6295324;28;20065;-74
2022/09/20 03:38:09;;;;;;;2.05;1.00;;;;;;;5.52;100.00;99814.66;6295027;28;20378;-73
2022/09/20 03:41:12;;;;;;;0.77;0.77;;;;;;;5.47;100.00;99822.63;6296191;28;20055;-74
2022/09/20 03:44:34;;;;;;;1.25;1.02;;;;;;;5.52;100.00;99814.66;6295996;28;20124;-74
2022/09/20 03:47:57;;;;;;;0.88;0.75;;;;;;;5.45;100.00;99825.28;6294729;28;20055;-74
2022/09/20 03:51:16;;;;;;;0.82;0.70;;;;;;;5.39;100.00;99822.97;6297650;28;20041;-74
2022/09/20 03:54:54;;;;;;;0.70;0.70;;;;;;;5.31;100.00;99822.44;6290278;28;20041;-74
2022/09/20 03:58:26;;;;;;;2.10;0.75;;;;;;;5.30;100.00;99820.78;6290263;28;20512;-74
2022/09/20 04:01:38;;;;;;;1.48;1.20;;;;;;;5.32;100.00;99829.31;6273667;28;20076;-74
2022/09/20 04:04:44;;;;;;;3.43;1.40;;;;;;;5.36;100.00;99836.03;6289188;28;20070;-74
2022/09/20 04:07:51;;;;;;;1.60;1.05;;;;;;;5.45;100.00;99830.47;6286881;28;20079;-74
2022/09/20 04:11:04;;;;;;;1.00;0.88;;;;;;;5.52;100.00;99843.13;6271957;28;20041;-74
2022/09/20 04:14:30;;;;;;;0.80;0.77;;;;;;;5.52;100.00;99841.41;6272184;28;20171;-74
2022/09/20 04:17:47;;;;;;;1.05;0.90;;;;;;;5.41;100.00;99841.84;6273187;28;20116;-74
2022/09/20 04:21:11;;;;;;;1.42;0.90;;;;;;;5.47;100.00;99845.09;6271789;28;20479;-75
2022/09/20 04:24:43;;;;;;;4.80;1.40;;;;;;;5.57;100.00;99854.13;6295603;28;20044;-74
2022/09/20 04:27:53;;;;;;;2.00;0.88;;;;;;;5.66;100.00;99858.91;6297323;28;20038;-74
2022/09/20 04:31:01;;;;;;;1.08;0.98;;;;;;;5.77;100.00;99861.03;6288722;28;20049;-74
2022/09/20 04:34:09;;;;;;;2.05;1.23;;;;;;;5.76;100.00;99861.94;6331581;28;20111;-75
2022/09/20 04:37:37;;;;;;;1.33;0.82;;;;;;;5.70;100.00;99873.38;6284132;28;20045;-74
2022/09/20 04:41:06;;;;;;;11.48;1.00;;;;;;;5.71;100.00;99869.91;6272949;28;20061;-74
2022/09/20 04:44:26;;;;;;;14.32;1.45;;;;;;;5.81;100.00;99863.41;6274522;28;20036;-74
2022/09/20 04:47:49;;;;;;;1.98;1.05;;;;;;;5.87;100.00;99872.66;6296718;28;20047;-74
2022/09/20 04:51:12;;;;;;;0.50;0.45;;;;;;;5.82;100.00;99870.25;6297874;28;20486;-74
2022/09/20 04:54:51;;;;;;;10.55;0.63;;;;;;;5.70;100.00;99868.22;6295926;28;20071;-74
2022/09/20 04:58:06;;;;;;;0.63;0.50;;;;;;;5.63;100.00;99878.00;6248262;28;20049;-74
2022/09/20 05:01:15;;;;;;;4.57;0.40;;;;;;;5.65;100.00;99883.94;6247304;28;20056;-74
2022/09/20 05:04:44;;;;;;;1.10;0.65;;;;;;;5.68;100.00;99877.78;6247607;28;20037;-74
2022/09/20 05:07:50;;;;;;;0.57;0.55;;;;;;;5.90;100.00;99882.88;6248308;28;20046;-74
2022/09/20 05:11:08;;;;;;;1.13;0.93;;;;;;;6.02;100.00;99881.53;6260106;28;20127;-74
2022/09/20 05:14:15;;;;;;;1.00;0.63;;;;;;;6.16;100.00;99889.53;6289871;28;20041;-74
2022/09/20 05:17:43;;;;;;;0.93;0.88;;;;;;;6.25;100.00;99890.84;6270603;28;20037;-74
2022/09/20 05:21:08;;;;;;;0.93;0.68;;;;;;;6.32;100.00;99894.84;6281494;28;20040;-74
2022/09/20 05:24:34;;;;;;;0.80;0.70;;;;;;;6.37;100.00;99897.22;6296641;28;20123;-74
2022/09/20 05:28:28;;;;;;;0.93;0.85;;;;;;;6.45;100.00;99901.13;6295185;28;20045;-74
2022/09/20 05:32:06;;;;;;;1.38;0.52;;;;;;;6.49;100.00;99904.44;6255119;28;20422;-74
2022/09/20 05:35:32;;;;;;;0.85;0.68;;;;;;;6.56;100.00;99889.44;6293532;28;20109;-74
2022/09/20 05:38:48;;;;;;;1.67;0.70;;;;;;;6.72;100.00;99886.97;6270084;28;20056;-74
2022/09/20 05:42:02;;;;;;;1.20;0.77;;;;;;;6.82;100.00;99891.63;6269884;28;20060;-73
2022/09/20 05:45:16;;;;;;;2.00;1.23;;;;;;;6.86;100.00;99892.31;6272428;28;20119;-74
2022/09/20 05:48:31;;;;;;;0.65;0.57;;;;;;;6.88;100.00;99900.88;6259685;28;20041;-73
2022/09/20 05:51:59;;;;;;;0.95;0.75;;;;;;;7.02;100.00;99902.78;6283100;28;20040;-74
2022/09/20 05:55:34;;;;;;;1.63;1.05;;;;;;;7.05;100.00;99905.22;6246161;28;20075;-74
2022/09/20 05:58:57;;;;;;;0.80;0.80;;;;;;;7.13;100.00;99907.47;6287038;28;20037;-74
2022/09/20 06:02:17;;;;;;;;;;;;;;;7.15;100.00;99919.44;6271039;28;20123;-75
2022/09/20 06:05:18;;;;;;;1.73;0.75;;;;;;;7.17;100.00;99917.59;6286025;28;19920;-74
2022/09/20 06:08:59;;;;;;;0.40;0.40;;;;;;;6.99;100.00;99926.28;6294164;28;20048;-74
2022/09/20 06:12:34;;;;;;;1.30;0.98;;;;;;;7.05;100.00;99923.41;6243904;28;20087;-74
2022/09/20 06:15:43;;;;;;;1.00;0.70;;;;;;;7.27;100.00;99918.00;6269030;28;20064;-74
2022/09/20 06:19:13;;;;;;;0.35;0.35;;;;;;;7.50;100.00;99932.44;6245569;28;20049;-75
2022/09/20 06:22:26;;;;;;;2.95;0.90;;;;;;;7.59;100.00;99923.31;6244385;28;20049;-75
2022/09/20 06:25:42;;;;;;;1.30;0.73;;;;;;;7.78;100.00;99929.28;6244404;28;20041;-74
2022/09/20 06:28:53;;;;;;;0.98;0.85;;;;;;;7.74;100.00;99934.69;6258693;28;20040;-75
2022/09/20 06:31:57;;;;;;;2.42;0.80;;;;;;;7.93;100.00;99934.56;6283203;28;20439;-74
2022/09/20 06:35:05;;;;;;;1.95;1.45;;;;;;;8.05;100.00;99933.94;6277269;28;20081;-75
2022/09/20 06:41:39;;;;;;;1.30;0.93;;;;;;;8.04;100.00;99925.31;6270076;28;20049;-74
2022/09/20 06:44:42;;;;;;;2.10;1.25;;;;;;;8.39;100.00;99922.59;6271213;28;20044;-75
2022/09/20 06:47:42;;;;;;;1.50;1.20;;;;;;;8.57;100.00;99918.19;6272495;28;20123;-74
2022/09/20 06:50:44;;;;;;;0.65;0.57;;;;;;;8.60;100.00;99931.00;6283784;28;20078;-74
2022/09/20 06:53:45;;;;;;;2.10;1.07;;;;;;;8.43;100.00;99929.34;6294885;28;20113;-75
2022/09/20 06:56:48;;;;;;;2.15;1.05;;;;;;;8.67;100.00;99934.13;6288008;28;20040;-74
2022/09/20 06:59:48;;;;;;;1.08;0.90;;;;;;;8.84;100.00;99941.84;6294668;28;20044;-74
2022/09/20 07:02:49;;;;;;;1.52;1.35;;;;;;;8.99;100.00;99945.34;6294645;28;20044;-74
2022/09/20 07:05:50;;;;;;;2.17;1.48;;;;;;;9.14;100.00;99946.25;6293403;28;20048;-73
2022/09/20 07:08:51;;;;;;;2.20;1.45;;;;;;;9.30;100.00;99937.56;6293316;28;20065;-74
2022/09/20 07:11:51;;;;;;;1.90;1.42;;;;;;;9.37;100.00;99946.69;6279516;28;20045;-75
2022/09/20 07:14:52;;;;;;;1.83;1.38;;;;;;;9.58;100.00;99947.22;6268361;28;20048;-74
2022/09/20 07:17:53;;;;;;;2.00;1.27;;;;;;;9.64;100.00;99952.06;6268427;28;20045;-74
2022/09/20 07:20:57;;;;;;;2.05;1.83;;;;;;;9.69;100.00;99966.47;6268393;28;20049;-75
2022/09/20 07:23:58;;;;;;;7.32;3.50;;;;;;;9.60;100.00;99966.22;6269811;28;20041;-74
2022/09/20 07:27:01;;;;;;;4.53;2.67;;;;;;;9.72;100.00;99967.22;6274374;28;20076;-74
2022/09/20 07:30:03;;;;;;;7.10;2.10;;;;;;;9.78;100.00;99961.66;6289540;28;20067;-74
2022/09/20 07:33:04;;;;;;;2.65;1.75;;;;;;;9.95;100.00;99974.53;6272939;28;20422;-74
2022/09/20 07:36:04;;;;;;;2.55;2.05;;;;;;;10.20;100.00;99986.94;6273039;28;20122;-74
2022/09/20 07:39:05;;;;;;;2.33;1.77;;;;;;;10.20;100.00;99980.91;6288343;28;20476;-75
2022/09/20 07:42:06;;;;;;;2.97;2.15;;;;;;;10.35;100.00;99984.38;6289513;28;20091;-75
2022/09/20 07:45:07;;;;;;;2.28;1.75;;;;;;;10.65;100.00;99985.09;6273999;28;20183;-74
2022/09/20 07:48:08;;;;;;;2.60;1.90;;;;;;;10.62;100.00;99982.66;6289432;28;20056;-75
2022/09/20 07:51:12;;;;;;;2.97;1.83;;;;;;;10.57;100.00;99991.72;6272611;28;20648;-75
2022/09/20 07:54:13;;;;;;;2.28;1.67;;;;;;;10.51;100.00;99989.50;6289135;28;20060;-74
2022/09/20 07:57:14;;;;;;;2.80;2.00;;;;;;;10.89;100.00;99987.06;6283266;28;20487;-74
2022/09/20 08:00:16;;;;;;;3.43;2.10;;;;;;;11.01;100.00;99988.06;6283245;28;20087;-74
2022/09/20 08:03:17;;;;;;;2.85;1.98;;;;;;;11.28;100.00;99988.06;6273525;28;20041;-75
2022/09/20 08:06:20;;;;;;;1.65;1.52;;;;;;;10.98;100.00;99993.50;6272431;28;20482;-75
2022/09/20 08:09:20;;;;;;;;;;;;;;;11.53;100.00;99995.16;6273865;28;20396;-75
2022/09/20 08:12:21;;;;;;;1.67;1.40;;;;;;;11.54;100.00;99986.38;6273300;28;20395;-75
2022/09/20 08:15:23;;;;;;;2.30;1.70;;;;;;;12.03;100.00;99988.34;6277434;28;20036;-74
2022/09/20 08:18:26;;;;;;;1.90;1.52;;;;;;;12.46;100.00;100002.88;6273267;28;20514;-74
2022/09/20 08:21:32;;;;;;;1.75;1.45;;;;;;;12.53;100.00;99995.41;6280348;28;20044;-74
2022/09/20 08:24:32;;;;;;;3.00;1.70;;;;;;;12.33;100.00;99994.19;6279369;28;20127;-75
2022/09/20 08:27:33;;;;;;;1.88;1.55;;;;;;;12.65;100.00;99997.16;6266444;28;20041;-75
2022/09/20 08:30:34;;;;;;;1.70;1.30;;;;;;;12.55;99.88;99996.16;6276193;28;20116;-75
2022/09/20 08:33:36;;;;;;;3.30;1.50;;;;;;;12.41;100.00;100005.78;6287505;28;20455;-75
2022/09/20 08:36:40;;;;;;;1.55;1.33;;;;;;;12.14;100.00;100000.66;6279407;28;20094;-74
2022/09/20 08:39:41;;;;;;;1.95;1.35;;;;;;;12.83;100.00;100006.34;6281861;28;20068;-75
2022/09/20 08:42:43;;;;;;;1.52;1.30;;;;;;;13.01;98.29;100003.34;6287621;28;20406;-75
2022/09/20 08:45:44;;;;;;;2.30;1.45;;;;;;;13.72;95.06;100000.84;6295392;28;20047;-75
2022/09/20 08:48:45;;;;;;;1.60;1.27;;;;;;;14.04;94.54;100004.47;6295362;28;20072;-74
2022/09/20 08:51:49;;;;;;;1.10;1.00;;;;;;;13.87;85.79;100007.53;6325878;28;20049;-75
2022/09/20 08:54:50;;;;;;;1.30;1.20;;;;;;;12.99;90.82;100000.84;6274129;28;20056;-74
2022/09/20 08:57:53;;;;;;;1.42;1.33;;;;;;;13.97;87.98;100002.44;6285611;28;20036;-74
2022/09/20 09:00:55;;;;;;;2.40;1.38;;;;;;;14.17;87.54;100007.00;6296945;28;20419;-75
2022/09/20 09:04:12;;;;;;;1.63;1.30;;;;;;;13.82;85.82;100005.25;6295542;28;20071;-75
2022/09/20 09:07:16;;;;;;;1.65;1.10;;;;;;;13.73;86.57;100002.50;6285601;28;20116;-75
2022/09/20 09:10:17;;;;;;;1.63;1.13;;;;;;;13.68;88.40;99995.81;6271265;28;20052;-75
2022/09/20 09:13:21;;;;;;;7.83;2.30;;;;;;;14.44;80.56;100000.56;6292231;28;20048;-74
2022/09/20 09:16:26;;;;;;;1.42;1.15;;;;;;;14.78;81.31;99993.50;6289558;28;20044;-76
2022/09/20 09:19:30;;;;;;;1.85;1.17;;;;;;;15.40;76.94;99994.66;6272621;28;20128;-76
2022/09/20 09:22:39;;;;;;;0.95;0.80;;;;;;;14.63;77.78;99994.72;6287206;28;20053;-74
2022/09/20 09:25:40;;;;;;;1.75;1.30;;;;;;;15.40;75.46;99993.81;6271968;28;20041;-76
2022/09/20 09:28:41;;;;;;;1.30;1.10;;;;;;;15.21;70.95;99987.44;6285499;28;20047;-75
2022/09/20 09:31:44;;;;;;;2.00;1.25;;;;;;;14.64;73.94;99989.38;6281439;28;20053;-74
2022/09/20 09:34:44;;;;;;;1.38;1.15;;;;;;;14.95;72.13;99975.56;6276046;28;20063;-74
2022/09/20 09:37:59;;;;;;;1.48;1.08;;;;;;;15.23;71.93;99992.56;6281519;28;20491;-75
2022/09/20 09:41:04;;;;;;;1.25;1.00;;;;;;;15.75;70.64;99987.44;6277065;28;20074;-76
2022/09/20 09:44:19;;;;;;;1.20;0.98;;;;;;;15.80;71.52;100001.06;6286418;28;20106;-74
2022/09/20 09:47:27;;;;;;;1.40;1.10;;;;;;;15.35;71.74;99994.19;6279335;28;20477;-75
2022/09/20 09:50:33;;;;;;;1.05;0.90;;;;;;;14.60;71.84;99993.19;6289467;28;20118;-74
2022/09/20 09:53:35;;;;;;;1.25;1.00;;;;;;;14.15;77.23;99990.53;6269606;28;20495;-75
2022/09/20 09:56:57;;;;;;;2.08;1.13;;;;;;;14.59;76.09;99993.31;6281746;28;20048;-74
2022/09/20 10:00:05;;;;;;;1.00;0.90;;;;;;;14.50;76.07;99987.78;6293929;28;20097;-76
2022/09/20 10:03:12;;;;;;;2.42;1.30;;;;;;;14.76;72.24;99990.16;6294275;28;20527;-74
2022/09/20 10:06:22;;;;;;;1.40;0.95;;;;;;;15.54;67.98;99982.97;6287000;28;20488;-74
2022/09/20 10:09:43;;;;;;;0.90;0.82;;;;;;;16.35;64.91;99982.38;6276993;28;20047;-74
2022/09/20 10:13:07;;;;;;;1.05;0.77;;;;;;;16.55;62.71;99973.56;6273275;28;20056;-74
2022/09/20 10:16:31;;;;;;;1.98;0.68;;;;;;;16.67;63.96;99977.75;6276295;28;20043;-74
2022/09/20 10:20:05;;;;;;;1.42;1.05;;;;;;;16.15;62.90;99977.03;6267734;28;20415;-75
2022/09/20 10:23:24;;;;;;;0.68;0.68;;;;;;;15.96;67.69;99979.53;6295846;28;20537;-74
2022/09/20 10:26:37;;;;;;;2.10;1.15;;;;;;;16.03;67.55;99980.72;6290559;28;20040;-76
2022/09/20 10:30:13;;;;;;;1.00;0.90;;;;;;;16.83;69.36;99976.47;6291979;28;20053;-74
2022/09/20 10:33:19;;;;;;;1.58;0.93;;;;;;;15.64;68.13;99981.25;6270254;28;20399;-76
2022/09/20 10:36:37;;;;;;;1.70;1.00;;;;;;;16.84;65.96;99984.25;6269960;28;20045;-76
2022/09/20 10:39:40;;;;;;;0.50;0.50;;;;;;;17.36;65.31;99994.56;6270016;28;20044;-75
2022/09/20 10:46:25;;;;;;;1.35;0.77;;;;;;;17.25;62.91;99982.31;6268905;28;20056;-74
2022/09/20 10:49:34;;;;;;;1.00;0.90;;;;;;;16.68;63.94;99983.88;6268962;28;20049;-76
2022/09/20 10:53:03;;;;;;;0.95;0.70;;;;;;;16.63;64.07;99986.91;6277419;28;20036;-76
2022/09/20 10:56:22;;;;;;;0.70;0.63;;;;;;;16.71;62.44;99981.78;6285327;28;20051;-75
2022/09/20 10:59:41;;;;;;;1.10;0.63;;;;;;;16.60;62.86;99979.28;6277673;28;20044;-74
2022/09/20 11:03:06;;;;;;;1.08;0.68;;;;;;;16.02;65.14;99987.78;6289620;28;20049;-74
2022/09/20 11:06:21;;;;;;;1.13;0.95;;;;;;;15.80;63.55;99985.28;6321689;28;20494;-74
2022/09/20 11:09:28;;;;;;;0.70;0.70;;;;;;;16.17;69.32;99985.63;6311515;28;20053;-75
2022/09/20 11:13:01;;;;;;;1.30;0.70;;;;;;;16.41;67.62;99987.97;6252403;28;20038;-75
2022/09/20 11:16:24;;;;;;;0.80;0.60;;;;;;;16.61;66.96;99983.56;6294178;28;20111;-75
2022/09/20 11:19:42;;;;;;;0.73;0.70;;;;;;;16.58;64.95;99972.50;6281650;28;20040;-74
2022/09/20 11:22:47;;;;;;;0.93;0.70;;;;;;;16.64;64.49;99978.03;6276056;28;20041;-76
2022/09/20 11:25:55;;;;;;;1.27;0.52;;;;;;;17.15;62.58;99973.56;6273172;28;20047;-74
2022/09/20 11:29:19;;;;;;;0.47;0.47;;;;;;;17.39;62.18;99978.44;6273613;28;20052;-75
2022/09/20 11:32:45;;;;;;;0.77;0.63;;;;;;;17.71;59.58;99974.69;6287173;28;20411;-76
2022/09/20 11:35:50;;;;;;;0.57;0.57;;;;;;;17.38;60.03;99968.88;6282153;28;20045;-76
2022/09/20 11:39:16;;;;;;;0.38;0.38;;;;;;;16.24;63.33;99968.31;6294749;28;20068;-76
2022/09/20 11:42:23;;;;;;;1.08;0.77;;;;;;;16.10;66.02;99968.69;6302003;28;20119;-76
2022/09/20 11:45:26;;;;;;;0.82;0.60;;;;;;;17.24;60.74;99964.84;6293335;28;20049;-76
2022/09/20 11:48:56;;;;;;;0.90;0.52;;;;;;;17.00;61.85;99961.78;6288255;28;20499;-75
2022/09/20 11:52:18;;;;;;;0.90;0.80;;;;;;;16.58;62.30;99964.59;6273283;28;20057;-76
2022/09/20 11:55:47;;;;;;;1.65;0.90;;;;;;;16.60;61.00;99954.75;6273839;28;20499;-75
2022/09/20 11:58:51;;;;;;;0.80;0.70;;;;;;;16.49;63.39;99955.66;6282034;28;20051;-75
2022/09/20 12:01:55;;;;;;;1.17;0.68;;;;;;;16.85;65.20;99954.28;6298353;28;20052;-74
2022/09/20 12:04:57;;;;;;;0.85;0.60;;;;;;;17.24;59.93;99959.56;6298611;28;20066;-75
2022/09/20 12:08:01;;;;;;;1.17;1.00;;;;;;;17.26;57.94;99955.00;6298213;28;20048;-74
2022/09/20 12:11:06;;;;;;;1.50;0.98;;;;;;;16.84;59.16;99957.03;6312479;28;20045;-74
2022/09/20 12:14:18;;;;;;;1.38;0.98;;;;;;;17.53;60.99;99950.81;6282324;28;20037;-75
2022/09/20 12:17:47;;;;;;;1.50;1.17;;;;;;;17.31;64.59;99958.03;6272004;28;20053;-74
2022/09/20 12:20:52;;;;;;;1.05;0.57;;;;;;;18.01;62.28;99949.06;6271963;28;20053;-74
2022/09/20 12:23:55;;;;;;;0.80;0.70;;;;;;;18.36;55.93;99951.00;6271709;28;20071;-74
2022/09/20 12:26:59;;;;;;;0.93;0.60;;;;;;;18.47;58.99;99945.53;6271736;28;20048;-76
2022/09/20 12:30:17;;;;;;;1.02;0.70;;;;;;;18.16;57.13;99942.34;6272797;28;20045;-76
2022/09/20 12:33:20;;;;;;;1.30;0.63;;;;;;;18.20;57.99;99942.88;6272884;28;20126;-76
2022/09/20 12:36:20;;;;;;;0.90;0.80;;;;;;;18.38;59.29;99941.13;6272763;28;20063;-75
2022/09/20 12:39:24;;;;;;;0.77;0.55;;;;;;;18.57;57.04;99936.72;6272801;28;20045;-76
2022/09/20 12:42:30;;;;;;;1.02;0.60;;;;;;;18.51;55.67;99936.34;6293488;28;20448;-74
2022/09/20 12:45:31;;;;;;;0.75;0.63;;;;;;;18.37;54.56;99946.56;6296098;28;20040;-75
2022/09/20 12:48:36;;;;;;;0.65;0.50;;;;;;;18.63;55.88;99941.41;6296099;28;20497;-75
2022/09/20 12:54:56;;;;;;;0.50;0.50;;;;;;;18.12;57.96;99939.16;6297226;28;20041;-74
2022/09/20 12:58:16;;;;;;;0.77;0.70;;;;;;;18.24;58.88;99934.53;6297036;28;20064;-74
2022/09/20 13:01:16;;;;;;;3.80;0.50;;;;;;;18.28;60.97;99930.63;6295749;28;20045;-74
2022/09/20 13:04:39;;;;;;;0.65;0.63;;;;;;;18.25;57.74;99933.53;6297024;28;20120;-74
2022/09/20 13:07:51;;;;;;;0.85;0.73;;;;;;;18.24;57.13;99923.97;6295678;28;20413;-74
2022/09/20 13:11:12;;;;;;;;;;;;;;;18.19;60.95;99933.31;6279356;28;20113;-74
2022/09/20 13:14:23;;;;;;;0.40;0.40;;;;;;;17.68;57.36;99920.34;6295604;28;20067;-74
2022/09/20 13:17:29;;;;;;;1.45;0.80;;;;;;;17.61;61.42;99935.13;6287294;28;20056;-75
2022/09/20 13:20:33;;;;;;;3.08;1.50;;;;;;;17.65;60.75;99936.50;6271849;28;20037;-74
2022/09/20 13:23:45;;;;;;;1.25;0.90;;;;;;;17.83;59.05;99928.72;6271517;28;20037;-74
2022/09/20 13:26:48;;;;;;;0.63;0.60;;;;;;;18.12;59.41;99938.34;6287169;28;20085;-74
2022/09/20 13:29:49;;;;;;;1.38;0.70;;;;;;;18.23;59.65;99930.22;6253439;28;20067;-74
2022/09/20 13:32:50;;;;;;;0.43;0.43;;;;;;;18.31;56.55;99935.59;6303683;28;20045;-75
2022/09/20 13:35:56;;;;;;;1.27;0.90;;;;;;;17.91;57.95;99920.91;6270430;28;20555;-75
2022/09/20 13:38:57;;;;;;;0.88;0.50;;;;;;;18.21;57.53;99937.44;6270223;28;20053;-76
2022/09/20 13:42:01;;;;;;;0.75;0.70;;;;;;;17.97;56.73;99926.56;6286913;28;20079;-76
2022/09/20 13:45:03;;;;;;;0.80;0.60;;;;;;;17.81;58.66;99927.13;6270200;28;20501;-76
2022/09/20 13:48:08;;;;;;;0.85;0.60;;;;;;;17.38;58.65;99924.03;6236146;28;20136;-76
2022/09/20 13:51:23;;;;;;;0.90;0.80;;;;;;;17.05;58.07;99923.50;6245309;28;20096;-76
2022/09/20 13:54:30;;;;;;;0.90;0.57;;;;;;;16.72;60.94;99919.44;6246429;28;20060;-76
2022/09/20 13:57:31;;;;;;;3.35;1.00;;;;;;;16.70;60.68;99919.56;6261541;28;20053;-75
2022/09/20 14:00:34;;;;;;;0.52;0.52;;;;;;;16.70;59.95;99916.91;6245057;28;20428;-75
2022/09/20 14:03:35;;;;;;;0.88;0.63;;;;;;;17.01;58.96;99922.13;6245052;28;20049;-74
2022/09/20 14:06:36;;;;;;;0.80;0.75;;;;;;;17.22;57.49;99919.34;6244862;28;20144;-75
2022/09/20 14:09:41;;;;;;;0.50;0.50;;;;;;;17.27;57.55;99914.44;6245968;28;20044;-75
2022/09/20 14:12:42;;;;;;;0.52;0.50;;;;;;;17.48;59.80;99918.72;6244758;28;20045;-75
2022/09/20 14:15:45;;;;;;;1.27;0.60;;;;;;;17.57;56.51;99914.44;6244668;28;20051;-75
2022/09/20 14:18:48;;;;;;;0.70;0.47;;;;;;;17.42;52.79;99914.88;6245826;28;20079;-74
2022/09/20 14:21:49;;;;;;;1.13;0.70;;;;;;;17.21;56.06;99907.09;6260879;28;20046;-75
2022/09/20 14:25:19;;;;;;;0.57;0.57;;;;;;;17.45;57.61;99913.75;6244458;28;20483;-76
2022/09/20 14:28:24;;;;;;;4.20;1.63;;;;;;;17.37;57.36;99905.72;6276641;28;20451;-75
2022/09/20 14:31:35;;;;;;;0.88;0.82;;;;;;;17.49;58.82;99915.13;6244318;28;20140;-75
2022/09/20 14:34:38;;;;;;;1.30;0.65;;;;;;;17.65;58.78;99914.56;6277095;28;20368;-76
2022/09/20 14:37:47;;;;;;;0.60;0.40;;;;;;;17.55;56.24;99914.56;6261100;28;20470;-75
2022/09/20 14:40:48;;;;;;;0.90;0.50;;;;;;;17.53;56.44;99922.63;6245436;28;20133;-75
2022/09/20 14:43:55;;;;;;;0.80;0.50;;;;;;;17.35;57.60;99919.03;6244178;28;20692;-75
2022/09/20 14:46:56;;;;;;;0.68;0.45;;;;;;;17.10;58.47;99923.91;6245365;28;20060;-75
2022/09/20 14:49:57;;;;;;;1.70;0.70;;;;;;;16.85;58.22;99927.91;6244179;28;20476;-75
2022/09/20 14:53:09;;;;;;;0.68;0.68;;;;;;;16.76;59.99;99930.50;6245223;28;20356;-75
2022/09/20 14:56:13;;;;;;;0.50;0.50;;;;;;;16.75;61.33;99927.03;6277354;28;20060;-75
2022/09/20 14:59:14;;;;;;;0.80;0.50;;;;;;;16.43;60.00;99925.47;6260478;28;20053;-75
2022/09/20 15:02:15;;;;;;;0.40;0.32;;;;;;;16.33;63.97;99932.50;6277267;28;20124;-75
2022/09/20 15:05:26;;;;;;;1.13;0.70;;;;;;;16.31;63.94;99934.44;6277185;28;20488;-75
2022/09/20 15:08:28;;;;;;;0.75;0.63;;;;;;;16.21;64.93;99930.94;6277048;28;20423;-75
2022/09/20 15:11:28;;;;;;;1.08;0.68;;;;;;;16.08;65.00;99926.72;6244928;28;20041;-75